createdAt,value
2022-08-09T00:00:11.855Z,67.55
2022-08-09T00:10:21.185Z,66.56
2022-08-09T00:20:23.596Z,66.50
2022-08-09T00:30:26.988Z,66.55
2022-08-09T00:40:30.302Z,67.39
2022-08-09T00:50:33.228Z,67.77
2022-08-09T01:00:38.746Z,67.77
2022-08-09T01:11:28.678Z,68.04
2022-08-09T01:21:50.883Z,68.47
2022-08-09T01:32:31.397Z,67.28
2022-08-09T01:42:18.370Z,68.33
2022-08-09T01:52:24.886Z,68.99
2022-08-09T02:02:32.728Z,69.12
2022-08-09T02:12:39.210Z,69.24
2022-08-09T02:22:51.774Z,69.15
2022-08-09T02:32:54.616Z,69.79
2022-08-09T02:43:00.811Z,69.85
2022-08-09T02:53:28.338Z,70.10
2022-08-09T03:04:13.251Z,70.13
2022-08-09T03:14:01.224Z,70.19
2022-08-09T03:24:05.275Z,70.48
2022-08-09T03:34:08.634Z,70.92
2022-08-09T03:44:15.514Z,71.00
2022-08-09T03:54:29.414Z,71.57
2022-08-09T04:04:38.739Z,70.77
2022-08-09T04:15:01.129Z,68.92
2022-08-09T04:25:05.290Z,69.25
2022-08-09T04:35:39.361Z,68.95
2022-08-09T04:45:53.113Z,66.67
2022-08-09T04:55:59.062Z,64.81
2022-08-09T05:06:06.997Z,63.48
2022-08-09T05:16:10.431Z,62.35
2022-08-09T05:26:22.268Z,60.25
2022-08-09T05:36:34.414Z,57.29
2022-08-09T05:46:36.496Z,56.49
2022-08-09T05:56:55.365Z,55.03
2022-08-09T06:06:59.345Z,53.26
2022-08-09T06:17:09.155Z,50.69
2022-08-09T06:27:15.548Z,48.62
2022-08-09T06:37:17.883Z,47.54
2022-08-09T06:47:20.059Z,43.72
2022-08-09T06:57:25.773Z,39.66
2022-08-09T07:07:59.705Z,37.02
2022-08-09T07:18:03.939Z,34.06
2022-08-09T07:28:06.937Z,33.14
2022-08-09T07:38:11.683Z,26.65
2022-08-09T07:48:25.678Z,24.05
2022-08-09T07:58:32.753Z,21.87
2022-08-09T08:08:59.714Z,20.54
2022-08-09T08:18:58.506Z,21.35
2022-08-09T08:29:00.541Z,20.51
2022-08-09T08:39:05.750Z,19.00
2022-08-09T08:49:08.707Z,19.16
2022-08-09T08:59:19.748Z,19.94
2022-08-09T09:09:58.403Z,20.03
2022-08-09T09:19:48.613Z,17.40
2022-08-09T09:30:14.184Z,14.64
2022-08-09T09:40:13.289Z,10.92
2022-08-09T09:50:23.161Z,9.90
2022-08-09T10:00:26.788Z,10.49
2022-08-09T10:10:31.621Z,10.92
2022-08-09T10:20:36.051Z,12.91
2022-08-09T10:32:28.336Z,14.56
2022-08-09T10:41:09.873Z,15.57
2022-08-09T10:51:44.091Z,15.85
2022-08-09T11:03:14.512Z,18.75
2022-08-09T11:23:13.939Z,21.64
2022-08-09T11:33:19.244Z,23.05
2022-08-09T11:43:32.273Z,24.56
2022-08-09T11:53:59.797Z,27.05
2022-08-09T12:04:08.436Z,28.19
2022-08-09T12:15:07.483Z,29.02
2022-08-09T12:25:36.766Z,28.47
2022-08-09T12:35:42.978Z,29.35
2022-08-09T12:46:00.386Z,29.06
2022-08-09T12:56:39.314Z,30.15
2022-08-09T13:06:40.712Z,30.20
2022-08-09T13:16:47.110Z,30.48
2022-08-09T13:26:52.266Z,30.38
2022-08-09T13:37:00.774Z,31.20
2022-08-09T13:47:28.790Z,32.46
2022-08-09T13:57:39.520Z,33.49
2022-08-09T14:07:44.128Z,33.53
2022-08-09T14:18:18.895Z,33.81
2022-08-09T14:28:08.450Z,36.38
2022-08-09T14:38:12.378Z,39.37
2022-08-09T14:48:17.711Z,41.36
2022-08-09T14:58:20.399Z,41.35
2022-08-09T15:08:23.846Z,42.08
2022-08-09T15:18:29.605Z,42.02
2022-08-09T15:28:33.293Z,42.20
2022-08-09T15:38:36.514Z,43.26
2022-08-09T15:48:41.621Z,43.07
2022-08-09T15:59:02.557Z,42.83
2022-08-09T16:09:06.407Z,41.84
2022-08-09T16:19:11.048Z,41.83
2022-08-09T16:29:16.824Z,41.78
2022-08-09T16:50:30.259Z,44.82
2022-08-09T17:00:36.406Z,44.78
2022-08-09T17:10:41.550Z,44.34
2022-08-09T17:20:52.502Z,45.54
2022-08-09T17:30:55.258Z,45.93
2022-08-09T17:40:57.341Z,47.96
2022-08-09T17:51:09.773Z,51.53
2022-08-09T18:01:22.429Z,53.04
2022-08-09T18:11:28.983Z,55.15
2022-08-09T18:21:45.050Z,56.23
2022-08-09T18:32:00.958Z,57.66
2022-08-09T18:42:08.720Z,58.46
2022-08-09T18:52:14.481Z,59.79
2022-08-09T19:02:20.421Z,59.85
2022-08-09T19:12:24.858Z,61.03
2022-08-09T19:22:30.712Z,60.49
2022-08-09T19:32:37.514Z,61.42
2022-08-09T19:42:43.782Z,62.27
2022-08-09T19:52:52.333Z,62.60
2022-08-09T20:04:17.881Z,63.31
2022-08-09T20:13:20.554Z,63.29
2022-08-09T20:23:24.683Z,64.05
2022-08-09T20:33:44.123Z,64.33
2022-08-09T20:43:47.717Z,64.58
2022-08-09T20:54:00.984Z,65.02
2022-08-09T21:05:49.192Z,65.50
2022-08-09T21:14:31.433Z,64.86
2022-08-09T21:24:36.671Z,65.63
2022-08-09T21:34:48.280Z,65.77
2022-08-09T21:44:51.111Z,66.28
2022-08-09T21:54:59.482Z,66.45
2022-08-09T22:05:17.077Z,66.54
2022-08-09T22:15:34.645Z,67.77
2022-08-09T22:26:07.414Z,67.93
2022-08-09T22:36:03.241Z,67.64
2022-08-09T22:48:11.471Z,67.58
2022-08-09T22:56:33.249Z,68.23
2022-08-09T23:06:54.881Z,67.79
2022-08-09T23:16:56.858Z,68.21
2022-08-09T23:26:59.101Z,68.57
2022-08-09T23:37:01.046Z,68.98
2022-08-09T23:47:02.945Z,68.84
2022-08-09T23:57:04.969Z,68.77
